PVV9802 EYVI-LHBP
Flight info
| Callsign | PVV9802 |
|---|---|
| Flight time | 1h 23m |
| Altitude | 31000 |
| Route | UPASI DCT TUNGA DCT SUWGI DCT BULEP DCT ASLUX DCT NEPOX DCT LIMVI DCT ORTEB DCT KELEL DCT EDEMU DCT LAHOR DCT LUCLA DCT BP783 DCT ULPAX DCT BP774 DCT CATUZ DCT BP755 DCT BP754 |
| Aircraft | B742/H-SDFHIRWXY/L |
Departure
| Time | 2026-05-04 17:11 |
|---|---|
| Airport | Vilnius International Airport (EYVI) |
Arrival
| Time | 2026-05-04 18:35 |
|---|---|
| Airport | Budapest Liszt Ferenc International Airport (LHBP) |
| Time | Latitude | Longitude | Altitude | Speed | Heading |
|---|---|---|---|---|---|
| 2026-05-04 16:58 | 54.64550 | 25.28486 | 634 ft | 0 kts | 164° |
| 2026-05-04 17:08 | 54.64519 | 25.28513 | 634 ft | 6 kts | 126° |
| 2026-05-04 17:08 | 54.64492 | 25.28571 | 635 ft | 5 kts | 147° |
| 2026-05-04 17:09 | 54.64443 | 25.28599 | 636 ft | 9 kts | 167° |
| 2026-05-04 17:09 | 54.64364 | 25.28628 | 637 ft | 13 kts | 168° |
| 2026-05-04 17:09 | 54.64322 | 25.28758 | 637 ft | 16 kts | 86° |
| 2026-05-04 17:10 | 54.64332 | 25.29147 | 641 ft | 6 kts | 126° |
| 2026-05-04 17:10 | 54.64246 | 25.29154 | 639 ft | 14 kts | 201° |
| 2026-05-04 17:11 | 54.63817 | 25.28854 | 624 ft | 119 kts | 201° |
| 2026-05-04 17:11 | 54.62772 | 25.28198 | 844 ft | 185 kts | 202° |
| 2026-05-04 17:11 | 54.60045 | 25.26626 | 2480 ft | 238 kts | 200° |
| 2026-05-04 17:12 | 54.58462 | 25.25794 | 3521 ft | 237 kts | 201° |
| 2026-05-04 17:12 | 54.55517 | 25.23336 | 5299 ft | 253 kts | 207° |
| 2026-05-04 17:13 | 54.51015 | 25.17274 | 8468 ft | 301 kts | 245° |
| 2026-05-04 17:14 | 54.51329 | 25.06789 | 11877 ft | 310 kts | 288° |
| 2026-05-04 17:14 | 54.52024 | 25.03290 | 13018 ft | 312 kts | 285° |
| 2026-05-04 17:14 | 54.52815 | 24.96053 | 15236 ft | 309 kts | 265° |
| 2026-05-04 17:15 | 54.52506 | 24.92441 | 16323 ft | 306 kts | 256° |
| 2026-05-04 17:15 | 54.51265 | 24.85576 | 18410 ft | 300 kts | 250° |
| 2026-05-04 17:16 | 54.49855 | 24.78928 | 20326 ft | 298 kts | 250° |
| 2026-05-04 17:16 | 54.47650 | 24.68693 | 22818 ft | 309 kts | 251° |
| 2026-05-04 17:17 | 54.46903 | 24.65233 | 23605 ft | 313 kts | 251° |
| 2026-05-04 17:17 | 54.44601 | 24.54616 | 25864 ft | 325 kts | 251° |
| 2026-05-04 17:18 | 54.43800 | 24.50934 | 26603 ft | 330 kts | 252° |
| 2026-05-04 17:18 | 54.42177 | 24.43490 | 28014 ft | 339 kts | 252° |
| 2026-05-04 17:19 | 54.40507 | 24.35863 | 29313 ft | 348 kts | 252° |
| 2026-05-04 17:19 | 54.38769 | 24.27997 | 30239 ft | 362 kts | 253° |
| 2026-05-04 17:20 | 54.37207 | 24.19582 | 30826 ft | 382 kts | 256° |
| 2026-05-04 17:20 | 54.35611 | 24.10425 | 30890 ft | 421 kts | 256° |
| 2026-05-04 17:20 | 54.34756 | 24.05539 | 30890 ft | 439 kts | 255° |
| 2026-05-04 17:21 | 54.32931 | 23.95218 | 30886 ft | 455 kts | 255° |
| 2026-05-04 17:21 | 54.31101 | 23.84951 | 30883 ft | 448 kts | 255° |
| 2026-05-04 17:22 | 54.29310 | 23.74939 | 30884 ft | 449 kts | 255° |
| 2026-05-04 17:23 | 54.25626 | 23.54483 | 30884 ft | 449 kts | 255° |
| 2026-05-04 17:24 | 54.22686 | 23.39243 | 30884 ft | 451 kts | 249° |
| 2026-05-04 17:25 | 54.16811 | 23.20240 | 30884 ft | 453 kts | 243° |
| 2026-05-04 17:26 | 54.10715 | 23.01549 | 30883 ft | 453 kts | 242° |
| 2026-05-04 17:26 | 54.03758 | 22.90726 | 30886 ft | 465 kts | 209° |
| 2026-05-04 17:27 | 53.97671 | 22.86807 | 30885 ft | 468 kts | 199° |
| 2026-05-04 17:28 | 53.84991 | 22.81612 | 30884 ft | 469 kts | 195° |
| 2026-05-04 17:29 | 53.75252 | 22.77940 | 30886 ft | 486 kts | 195° |
| 2026-05-04 17:29 | 53.65456 | 22.74261 | 30901 ft | 483 kts | 195° |
| 2026-05-04 17:31 | 53.49160 | 22.68166 | 30914 ft | 484 kts | 195° |
| 2026-05-04 17:32 | 53.32629 | 22.62032 | 30914 ft | 484 kts | 195° |
| 2026-05-04 17:33 | 53.19291 | 22.57118 | 30915 ft | 484 kts | 195° |
| 2026-05-04 17:34 | 53.06173 | 22.52315 | 30914 ft | 483 kts | 195° |
| 2026-05-04 17:35 | 52.89860 | 22.46385 | 30918 ft | 480 kts | 195° |
| 2026-05-04 17:36 | 52.83322 | 22.44021 | 30923 ft | 480 kts | 195° |
| 2026-05-04 17:36 | 52.76756 | 22.41422 | 30926 ft | 479 kts | 199° |
| 2026-05-04 17:37 | 52.70411 | 22.37962 | 30923 ft | 478 kts | 202° |
| 2026-05-04 17:37 | 52.64115 | 22.34298 | 30919 ft | 478 kts | 201° |
| 2026-05-04 17:38 | 52.57801 | 22.30738 | 30921 ft | 478 kts | 201° |
| 2026-05-04 17:38 | 52.51578 | 22.27220 | 30929 ft | 478 kts | 201° |
| 2026-05-04 17:39 | 52.42170 | 22.21855 | 30932 ft | 478 kts | 201° |
| 2026-05-04 17:39 | 52.35875 | 22.18266 | 30928 ft | 478 kts | 201° |
| 2026-05-04 17:40 | 52.29844 | 22.13750 | 30924 ft | 475 kts | 211° |
| 2026-05-04 17:40 | 52.24196 | 22.08280 | 30917 ft | 474 kts | 214° |
| 2026-05-04 17:41 | 52.18551 | 22.02599 | 30914 ft | 474 kts | 214° |
| 2026-05-04 17:41 | 52.12979 | 21.97683 | 30916 ft | 476 kts | 208° |
| 2026-05-04 17:42 | 52.06817 | 21.92920 | 30926 ft | 476 kts | 207° |
| 2026-05-04 17:42 | 52.00819 | 21.88379 | 30937 ft | 476 kts | 207° |
| 2026-05-04 17:43 | 51.94774 | 21.83801 | 30943 ft | 477 kts | 207° |
| 2026-05-04 17:43 | 51.88800 | 21.79280 | 30941 ft | 476 kts | 207° |
| 2026-05-04 17:44 | 51.82748 | 21.74710 | 30942 ft | 476 kts | 207° |
| 2026-05-04 17:44 | 51.76703 | 21.70158 | 30943 ft | 477 kts | 207° |
| 2026-05-04 17:45 | 51.70610 | 21.65736 | 30943 ft | 477 kts | 206° |
| 2026-05-04 17:45 | 51.64516 | 21.61443 | 30943 ft | 477 kts | 206° |
| 2026-05-04 17:46 | 51.58334 | 21.57107 | 30943 ft | 477 kts | 206° |
| 2026-05-04 17:46 | 51.52151 | 21.52777 | 30943 ft | 477 kts | 206° |
| 2026-05-04 17:47 | 51.46050 | 21.48514 | 30943 ft | 477 kts | 206° |
| 2026-05-04 17:47 | 51.39973 | 21.44281 | 30943 ft | 477 kts | 206° |
| 2026-05-04 17:48 | 51.33881 | 21.40048 | 30943 ft | 477 kts | 206° |
| 2026-05-04 17:48 | 51.27803 | 21.35839 | 30943 ft | 477 kts | 206° |
| 2026-05-04 17:49 | 51.21661 | 21.31660 | 30943 ft | 478 kts | 205° |
| 2026-05-04 17:49 | 51.15532 | 21.27529 | 30943 ft | 477 kts | 205° |
| 2026-05-04 17:50 | 51.09392 | 21.23345 | 30943 ft | 477 kts | 205° |
| 2026-05-04 17:50 | 51.03389 | 21.19240 | 30943 ft | 477 kts | 205° |
| 2026-05-04 17:51 | 50.97300 | 21.15083 | 30943 ft | 481 kts | 205° |
| 2026-05-04 17:51 | 50.91172 | 21.10909 | 30943 ft | 484 kts | 205° |
| 2026-05-04 17:52 | 50.84954 | 21.06688 | 30943 ft | 487 kts | 206° |
| 2026-05-04 17:52 | 50.78674 | 21.02437 | 30943 ft | 487 kts | 206° |
| 2026-05-04 17:53 | 50.72375 | 20.98187 | 30943 ft | 486 kts | 206° |
| 2026-05-04 17:53 | 50.66101 | 20.93965 | 30943 ft | 486 kts | 206° |
| 2026-05-04 17:54 | 50.59842 | 20.89766 | 30943 ft | 485 kts | 207° |
| 2026-05-04 17:54 | 50.53607 | 20.85595 | 30944 ft | 486 kts | 207° |
| 2026-05-04 17:55 | 50.47292 | 20.81382 | 30949 ft | 486 kts | 207° |
| 2026-05-04 17:55 | 50.41096 | 20.77261 | 30954 ft | 485 kts | 207° |
| 2026-05-04 17:56 | 50.37980 | 20.75193 | 31064 ft | 483 kts | 207° |
| 2026-05-04 17:56 | 50.34921 | 20.73167 | 31429 ft | 483 kts | 207° |
| 2026-05-04 17:56 | 50.31797 | 20.71098 | 31781 ft | 488 kts | 207° |
| 2026-05-04 17:56 | 50.28608 | 20.68986 | 31935 ft | 497 kts | 207° |
| 2026-05-04 17:57 | 50.22173 | 20.64741 | 31970 ft | 499 kts | 207° |
| 2026-05-04 17:57 | 50.15795 | 20.60556 | 31972 ft | 494 kts | 207° |
| 2026-05-04 17:58 | 50.09376 | 20.56538 | 31974 ft | 496 kts | 204° |
| 2026-05-04 17:58 | 50.02765 | 20.53053 | 31973 ft | 498 kts | 202° |
| 2026-05-04 17:59 | 49.96161 | 20.49730 | 31973 ft | 498 kts | 201° |
| 2026-05-04 18:00 | 49.86337 | 20.44789 | 31977 ft | 497 kts | 202° |
| 2026-05-04 18:00 | 49.79672 | 20.41435 | 31979 ft | 498 kts | 202° |
| 2026-05-04 18:01 | 49.73069 | 20.38118 | 31978 ft | 498 kts | 202° |
| 2026-05-04 18:01 | 49.66469 | 20.34814 | 32011 ft | 497 kts | 201° |
| 2026-05-04 18:02 | 49.56714 | 20.30071 | 32058 ft | 498 kts | 201° |
| 2026-05-04 18:02 | 49.50134 | 20.26840 | 32061 ft | 498 kts | 201° |
| 2026-05-04 18:03 | 49.43581 | 20.23600 | 32061 ft | 498 kts | 201° |
| 2026-05-04 18:03 | 49.36964 | 20.20326 | 32061 ft | 499 kts | 201° |
| 2026-05-04 18:04 | 49.30406 | 20.17319 | 32061 ft | 500 kts | 197° |
| 2026-05-04 18:05 | 49.20240 | 20.13843 | 31949 ft | 501 kts | 195° |
| 2026-05-04 18:05 | 49.16844 | 20.12747 | 31734 ft | 497 kts | 195° |
| 2026-05-04 18:05 | 49.13534 | 20.11679 | 31484 ft | 487 kts | 195° |
| 2026-05-04 18:05 | 49.10283 | 20.10626 | 31146 ft | 481 kts | 195° |
| 2026-05-04 18:06 | 49.03798 | 20.08510 | 30166 ft | 473 kts | 195° |
| 2026-05-04 18:06 | 49.00595 | 20.07464 | 29675 ft | 470 kts | 195° |
| 2026-05-04 18:06 | 48.97448 | 20.06436 | 29184 ft | 463 kts | 195° |
| 2026-05-04 18:07 | 48.94328 | 20.05422 | 28692 ft | 452 kts | 195° |
| 2026-05-04 18:07 | 48.91282 | 20.04432 | 28200 ft | 443 kts | 196° |
| 2026-05-04 18:07 | 48.88350 | 20.03480 | 27716 ft | 433 kts | 196° |
| 2026-05-04 18:07 | 48.85446 | 20.02537 | 27227 ft | 425 kts | 196° |
| 2026-05-04 18:08 | 48.82570 | 20.01603 | 26657 ft | 421 kts | 196° |
| 2026-05-04 18:08 | 48.79703 | 20.00673 | 26011 ft | 416 kts | 196° |
| 2026-05-04 18:08 | 48.76874 | 19.99758 | 25365 ft | 410 kts | 196° |
| 2026-05-04 18:08 | 48.74099 | 19.98861 | 24722 ft | 405 kts | 196° |
| 2026-05-04 18:09 | 48.68613 | 19.97092 | 23521 ft | 396 kts | 195° |
| 2026-05-04 18:09 | 48.63269 | 19.95373 | 22334 ft | 387 kts | 195° |
| 2026-05-04 18:10 | 48.60632 | 19.94527 | 21738 ft | 383 kts | 195° |
| 2026-05-04 18:10 | 48.58041 | 19.93696 | 21146 ft | 379 kts | 195° |
| 2026-05-04 18:10 | 48.55459 | 19.92868 | 20550 ft | 375 kts | 195° |
| 2026-05-04 18:10 | 48.52900 | 19.92050 | 20025 ft | 369 kts | 195° |
| 2026-05-04 18:11 | 48.50364 | 19.91239 | 19641 ft | 367 kts | 195° |
| 2026-05-04 18:11 | 48.47817 | 19.90424 | 19277 ft | 366 kts | 195° |
| 2026-05-04 18:11 | 48.45296 | 19.89620 | 19107 ft | 363 kts | 195° |
| 2026-05-04 18:11 | 48.42784 | 19.88819 | 19070 ft | 364 kts | 195° |
| 2026-05-04 18:12 | 48.40305 | 19.88029 | 19063 ft | 365 kts | 195° |
| 2026-05-04 18:12 | 48.37770 | 19.87223 | 19062 ft | 365 kts | 195° |
| 2026-05-04 18:12 | 48.35261 | 19.86426 | 19061 ft | 365 kts | 195° |
| 2026-05-04 18:12 | 48.32725 | 19.85621 | 19061 ft | 365 kts | 195° |
| 2026-05-04 18:13 | 48.30213 | 19.84825 | 19061 ft | 365 kts | 195° |
| 2026-05-04 18:13 | 48.27701 | 19.84029 | 19061 ft | 365 kts | 195° |
| 2026-05-04 18:13 | 48.22683 | 19.82442 | 19061 ft | 365 kts | 195° |
| 2026-05-04 18:14 | 48.20163 | 19.81648 | 19058 ft | 356 kts | 195° |
| 2026-05-04 18:14 | 48.17743 | 19.80915 | 19056 ft | 342 kts | 194° |
| 2026-05-04 18:14 | 48.15385 | 19.80308 | 19060 ft | 340 kts | 193° |
| 2026-05-04 18:15 | 48.10646 | 19.79190 | 19061 ft | 341 kts | 192° |
| 2026-05-04 18:15 | 48.05899 | 19.78081 | 18915 ft | 344 kts | 192° |
| 2026-05-04 18:15 | 48.03509 | 19.77522 | 18398 ft | 341 kts | 192° |
| 2026-05-04 18:16 | 48.01160 | 19.76975 | 17881 ft | 334 kts | 192° |
| 2026-05-04 18:16 | 47.98826 | 19.76431 | 17358 ft | 330 kts | 192° |
| 2026-05-04 18:16 | 47.96593 | 19.75910 | 16854 ft | 328 kts | 192° |
| 2026-05-04 18:17 | 47.92121 | 19.74868 | 15669 ft | 319 kts | 192° |
| 2026-05-04 18:17 | 47.89962 | 19.74367 | 15060 ft | 312 kts | 192° |
| 2026-05-04 18:17 | 47.85716 | 19.73365 | 13820 ft | 298 kts | 194° |
| 2026-05-04 18:18 | 47.83757 | 19.72411 | 13197 ft | 287 kts | 209° |
| 2026-05-04 18:18 | 47.82079 | 19.70883 | 12586 ft | 279 kts | 219° |
| 2026-05-04 18:18 | 47.80547 | 19.69057 | 12035 ft | 269 kts | 223° |
| 2026-05-04 18:18 | 47.79160 | 19.67234 | 11651 ft | 264 kts | 224° |
| 2026-05-04 18:19 | 47.76443 | 19.63536 | 10687 ft | 258 kts | 225° |
| 2026-05-04 18:19 | 47.75119 | 19.61722 | 10172 ft | 256 kts | 224° |
| 2026-05-04 18:19 | 47.73813 | 19.59932 | 9661 ft | 252 kts | 224° |
| 2026-05-04 18:20 | 47.72528 | 19.58172 | 9144 ft | 244 kts | 224° |
| 2026-05-04 18:20 | 47.71515 | 19.56208 | 8619 ft | 235 kts | 249° |
| 2026-05-04 18:20 | 47.71018 | 19.53897 | 8108 ft | 230 kts | 255° |
| 2026-05-04 18:20 | 47.70776 | 19.51555 | 7591 ft | 226 kts | 265° |
| 2026-05-04 18:21 | 47.70650 | 19.49188 | 7078 ft | 224 kts | 265° |
| 2026-05-04 18:21 | 47.70538 | 19.46876 | 6702 ft | 221 kts | 265° |
| 2026-05-04 18:21 | 47.70428 | 19.44566 | 6322 ft | 220 kts | 265° |
| 2026-05-04 18:21 | 47.70321 | 19.42271 | 6083 ft | 217 kts | 265° |
| 2026-05-04 18:22 | 47.70220 | 19.40059 | 6018 ft | 203 kts | 265° |
| 2026-05-04 18:22 | 47.70126 | 19.37963 | 6004 ft | 198 kts | 265° |
| 2026-05-04 18:22 | 47.70001 | 19.35886 | 6002 ft | 197 kts | 262° |
| 2026-05-04 18:22 | 47.69813 | 19.33834 | 5995 ft | 198 kts | 261° |
| 2026-05-04 18:23 | 47.69618 | 19.31764 | 5630 ft | 200 kts | 261° |
| 2026-05-04 18:23 | 47.69426 | 19.29700 | 5275 ft | 195 kts | 261° |
| 2026-05-04 18:23 | 47.69282 | 19.27730 | 5061 ft | 182 kts | 263° |
| 2026-05-04 18:23 | 47.69159 | 19.25887 | 5010 ft | 175 kts | 263° |
| 2026-05-04 18:24 | 47.69039 | 19.24067 | 5002 ft | 174 kts | 263° |
| 2026-05-04 18:24 | 47.68918 | 19.22239 | 5001 ft | 173 kts | 263° |
| 2026-05-04 18:24 | 47.68798 | 19.20423 | 5001 ft | 173 kts | 263° |
| 2026-05-04 18:24 | 47.68678 | 19.18605 | 5001 ft | 173 kts | 263° |
| 2026-05-04 18:25 | 47.68559 | 19.16789 | 5001 ft | 174 kts | 263° |
| 2026-05-04 18:25 | 47.68439 | 19.14962 | 5001 ft | 174 kts | 263° |
| 2026-05-04 18:25 | 47.68321 | 19.13145 | 5001 ft | 174 kts | 263° |
| 2026-05-04 18:25 | 47.68203 | 19.11320 | 5001 ft | 174 kts | 263° |
| 2026-05-04 18:26 | 47.68085 | 19.09499 | 5001 ft | 174 kts | 263° |
| 2026-05-04 18:26 | 47.67790 | 19.07758 | 4991 ft | 172 kts | 232° |
| 2026-05-04 18:26 | 47.66938 | 19.06465 | 5009 ft | 164 kts | 222° |
| 2026-05-04 18:26 | 47.66124 | 19.05367 | 5001 ft | 153 kts | 222° |
| 2026-05-04 18:27 | 47.65307 | 19.04266 | 4701 ft | 156 kts | 222° |
| 2026-05-04 18:27 | 47.64493 | 19.03166 | 4316 ft | 154 kts | 222° |
| 2026-05-04 18:27 | 47.63711 | 19.02105 | 4074 ft | 148 kts | 222° |
| 2026-05-04 18:27 | 47.62956 | 19.01076 | 4010 ft | 141 kts | 222° |
| 2026-05-04 18:28 | 47.62226 | 19.00083 | 4002 ft | 139 kts | 222° |
| 2026-05-04 18:28 | 47.61503 | 18.99095 | 4001 ft | 139 kts | 222° |
| 2026-05-04 18:28 | 47.60670 | 18.98389 | 3990 ft | 138 kts | 180° |
| 2026-05-04 18:28 | 47.59803 | 18.99023 | 3921 ft | 148 kts | 134° |
| 2026-05-04 18:29 | 47.58943 | 18.99799 | 3616 ft | 140 kts | 161° |
| 2026-05-04 18:29 | 47.58195 | 19.00739 | 3532 ft | 142 kts | 136° |
| 2026-05-04 18:29 | 47.57475 | 19.01769 | 3507 ft | 141 kts | 139° |
| 2026-05-04 18:29 | 47.56755 | 19.02797 | 3503 ft | 141 kts | 137° |
| 2026-05-04 18:30 | 47.55385 | 19.04946 | 3362 ft | 143 kts | 134° |
| 2026-05-04 18:30 | 47.54711 | 19.06050 | 3231 ft | 141 kts | 134° |
| 2026-05-04 18:30 | 47.54044 | 19.07145 | 3103 ft | 141 kts | 134° |
| 2026-05-04 18:31 | 47.53376 | 19.08239 | 2919 ft | 141 kts | 134° |
| 2026-05-04 18:31 | 47.52708 | 19.09331 | 2724 ft | 140 kts | 134° |
| 2026-05-04 18:31 | 47.52040 | 19.10421 | 2536 ft | 140 kts | 134° |
| 2026-05-04 18:31 | 47.51389 | 19.11483 | 2352 ft | 139 kts | 134° |
| 2026-05-04 18:32 | 47.50715 | 19.12581 | 2160 ft | 139 kts | 134° |
| 2026-05-04 18:32 | 47.50072 | 19.13628 | 2001 ft | 134 kts | 134° |
| 2026-05-04 18:32 | 47.49432 | 19.14668 | 1814 ft | 133 kts | 134° |
| 2026-05-04 18:32 | 47.48798 | 19.15698 | 1616 ft | 132 kts | 134° |
| 2026-05-04 18:33 | 47.48175 | 19.16710 | 1439 ft | 132 kts | 134° |
| 2026-05-04 18:33 | 47.47548 | 19.17728 | 1261 ft | 131 kts | 134° |
| 2026-05-04 18:33 | 47.46912 | 19.18759 | 1080 ft | 131 kts | 134° |
| 2026-05-04 18:33 | 47.46301 | 19.19754 | 902 ft | 131 kts | 134° |
| 2026-05-04 18:34 | 47.45677 | 19.20785 | 724 ft | 130 kts | 133° |
| 2026-05-04 18:34 | 47.45063 | 19.21779 | 584 ft | 131 kts | 134° |
| 2026-05-04 18:34 | 47.44432 | 19.22787 | 449 ft | 129 kts | 134° |
| 2026-05-04 18:34 | 47.43864 | 19.23683 | 441 ft | 96 kts | 132° |
| 2026-05-04 18:35 | 47.43550 | 19.24201 | 434 ft | 51 kts | 130° |
| 2026-05-04 18:35 | 47.43343 | 19.24543 | 439 ft | 33 kts | 132° |
| 2026-05-04 18:35 | 47.43205 | 19.24767 | 445 ft | 18 kts | 132° |
| 2026-05-04 18:35 | 47.43114 | 19.24916 | 448 ft | 11 kts | 130° |
| 2026-05-04 18:36 | 47.43094 | 19.25007 | 451 ft | 6 kts | 82° |
| 2026-05-04 18:36 | 47.43102 | 19.25049 | 453 ft | 2 kts | 62° |
| 2026-05-04 18:36 | 47.43125 | 19.25090 | 455 ft | 8 kts | 45° |
| 2026-05-04 18:36 | 47.43184 | 19.25172 | 457 ft | 13 kts | 42° |
| 2026-05-04 18:37 | 47.43266 | 19.25281 | 461 ft | 18 kts | 41° |
| 2026-05-04 18:37 | 47.43370 | 19.25421 | 466 ft | 21 kts | 42° |
| 2026-05-04 18:37 | 47.43480 | 19.25568 | 470 ft | 20 kts | 42° |
| 2026-05-04 18:37 | 47.43550 | 19.25663 | 472 ft | 20 kts | 43° |
| 2026-05-04 18:38 | 47.43634 | 19.25775 | 476 ft | 15 kts | 41° |
| 2026-05-04 18:38 | 47.43716 | 19.25885 | 478 ft | 15 kts | 41° |
| 2026-05-04 18:38 | 47.43788 | 19.25984 | 479 ft | 12 kts | 42° |
| 2026-05-04 18:38 | 47.43854 | 19.26074 | 480 ft | 12 kts | 42° |
| 2026-05-04 18:39 | 47.43912 | 19.26176 | 480 ft | 13 kts | 84° |
| 2026-05-04 18:39 | 47.43859 | 19.26298 | 480 ft | 14 kts | 132° |
| 2026-05-04 18:39 | 47.43783 | 19.26422 | 478 ft | 17 kts | 132° |
| 2026-05-04 18:39 | 47.43692 | 19.26568 | 477 ft | 19 kts | 132° |
| 2026-05-04 18:40 | 47.43594 | 19.26726 | 474 ft | 22 kts | 132° |
| 2026-05-04 18:40 | 47.43478 | 19.26915 | 468 ft | 25 kts | 132° |
| 2026-05-04 18:40 | 47.43363 | 19.27101 | 460 ft | 19 kts | 133° |
| 2026-05-04 18:40 | 47.43260 | 19.27267 | 454 ft | 23 kts | 132° |
| 2026-05-04 18:41 | 47.43141 | 19.27460 | 448 ft | 26 kts | 132° |
| 2026-05-04 18:41 | 47.43033 | 19.27636 | 442 ft | 15 kts | 132° |
| 2026-05-04 18:41 | 47.42952 | 19.27764 | 439 ft | 16 kts | 132° |
| 2026-05-04 18:41 | 47.42901 | 19.27849 | 437 ft | 8 kts | 132° |
| 2026-05-04 18:42 | 47.42863 | 19.27906 | 436 ft | 9 kts | 154° |
| 2026-05-04 18:42 | 47.42799 | 19.27861 | 437 ft | 7 kts | 222° |
| 2026-05-04 18:42 | 47.42782 | 19.27812 | 438 ft | 3 kts | 290° |
| 2026-05-04 18:42 | 47.42796 | 19.27790 | 438 ft | 1 kts | 317° |
| 2026-05-04 18:43 | 47.42814 | 19.27764 | 439 ft | 5 kts | 313° |
| 2026-05-04 18:43 | 47.42826 | 19.27744 | 440 ft | 0 kts | 313° |